Tiempo atmosférico en la estación meteorológica de Fuente Palmera, Córdoba (120 m.)



Fecha
DESCASC
Temp. máxima en grados centígrados (hora)
DESCASC
Temp. mínima en grados centígrados (hora)
DESCASC
Temp. media en grados centígrados
DESCASC
Racha de viento máxima en m/sg (hora)
DESCASC
Velocidad máxima media en intervalos de 10 minutos(hora)
DESCASC
Precipitaciones diarias en mm
DESCASC
Precipitaciones de 00:00 a 06:00 en mm
DESCASC
Precipitaciones de 06:00 a 12:00 en mm
DESCASC
Precipitaciones de 12:00 a 18:00 en mm
DESCASC
Precipitaciones de 18:00 a 24:00 en mm
DESCASC
22-04-2019 23.9 (18:40) 10.4 (07:50) 17.1 12.5 (20:20) 8.06 (19:10) 0 0 0 0 0
21-04-2019 19.3 (17:40) 13.2 (07:50) 16.2 11.11 (16:40) 5.83 (17:30) 0 0 0 0 0
20-04-2019 19.6 (16:30) 10.1 (05:10) 14.9 12.78 (19:40) 7.5 (16:30) 0.8 0 0.8 0 0
19-04-2019 20.5 (16:50) 9.9 (02:50) 15.2 9.72 (17:50) 6.67 (17:50) 0.6 0.2 0 0 0.4
18-04-2019 18 (14:50) 10.9 (00:00) 14.4 9.17 (13:00) 5.56 (13:00) 4.4 0 0 2.8 1.6
17-04-2019 22.2 (13:40) 11.4 (00:00) 16.8 16.11 (19:40) 9.44 (19:40) 0 0 0 0 0
16-04-2019 26.6 (19:10) 9.6 (00:00) 18.1 7.5 (22:20) 4.72 (22:20) 0 0 0 0 0
15-04-2019 26.1 (15:40) 13.3 (00:00) 19.7 13.61 (18:10) 8.61 (18:10) 0 0 0 0 0
14-04-2019 26.1 (18:00) 9.8 (00:00) 18 5.83 (01:00) 3.61 (00:50) 0 0 0 0 0
13-04-2019 24.4 (17:20) 7.6 (00:00) 16 7.5 (17:50) 3.89 (18:40) 0 0 0 0 0
12-04-2019 22.9 (18:00) 6.6 (00:00) 14.7 5.83 (11:00) 3.61 (11:00) 0 0 0 0 0
11-04-2019 21.6 (17:40) 8.6 (00:00) 15.1 7.22 (14:00) 3.06 (00:20) 0 0 0 0 0
10-04-2019 19.8 (17:40) 7.5 (00:00) 13.6 9.72 (18:30) 5.28 (19:40) 0 0 0 0 0
09-04-2019 18.6 (17:40) 6.6 (00:00) 12.6 13.89 (15:30) 8.06 (17:10) 0.2 0 0.2 0 0
08-04-2019 17.6 (15:20) 12.3 (00:00) 15 11.11 (16:10) 5.56 (18:10) 22.6 0.4 4.8 16.8 0.6
07-04-2019 16.5 (14:10) 8.6 (00:00) 12.6 11.67 (13:40) 6.67 (14:40) 4.6 0 0 0.6 4
06-04-2019 14.6 (16:40) 5.9 (00:00) 10.3 12.78 (17:00) 6.67 (13:30) 9.8 1.6 0.4 6.6 1.2
05-04-2019 15.6 (17:50) 8.1 (00:00) 11.9 15.28 (18:30) 8.89 (18:30) 9.8 0 7 1 1.8
04-04-2019 19.8 (18:10) 6.6 (00:00) 13.2 12.78 (21:30) 6.11 (21:30) 0 0 0 0 0
03-04-2019 22.9 (17:40) 9.1 (00:00) 16 13.61 (15:40) 7.22 (18:10) 0 0 0 0 0
02-04-2019 22.3 (18:40) 11.7 (00:00) 17 5.83 (18:00) 3.33 (19:10) 0 0 0 0 0
01-04-2019 19.6 (15:30) 11.5 (00:00) 15.6 10 (15:50) 6.11 (15:50) 1.4 0.2 0 1.2 0
31-03-2019 21.4 (17:50) 12.4 (00:00) 16.9 9.44 (19:00) 6.39 (19:10) 3.2 0 0 0 3.2
30-03-2019 23.3 (16:30) 8.3 (00:00) 15.8 11.67 (19:10) 6.67 (19:20) 0 0 0 0 0
29-03-2019 22.3 (16:10) 5.3 (00:00) 13.8 10 (19:40) 5.28 (18:00) 0 0 0 0 0
28-03-2019 21.6 (18:20) 6.6 (00:00) 14.1 8.61 (13:40) 4.72 (18:50) 0 0 0 0 0
27-03-2019 21.9 (16:50) 9.5 (00:00) 15.7 11.39 (13:40) 6.67 (12:10) 0 0 0 0 0
26-03-2019 27.3 (17:10) 9.2 (00:00) 18.2 10.28 (18:10) 5.83 (17:50) 0 0 0 0 0
25-03-2019 24.6 (17:10) 8.1 (00:00) 16.4 11.11 (13:10) 6.67 (10:50) 0 0 0 0 0

Gráficas

Temp. máximas Temp. mínimas Temp. medias Precipitaciones Rachas de viento máximas Velocidades máximas media en intervalos de 10 minutos

Datos horarios

Fecha y hora oficial Temperatura (ºC) Velocidad del viento (km/h) Dirección del viento Racha (km/h) Dirección de racha Precipitación (mm) Presión (hPa) Tendencia (hPa) Humedad (%)
2019-04-23 23:00:00 11.9 22 Oeste 34 Oeste 0 -- -- 63
2019-04-23 22:00:00 12.1 18 Oeste 44 Sudoeste 0 -- -- 57
2019-04-23 21:00:00 13.5 21 Oeste 41 Oeste 0 -- -- 51
2019-04-23 20:00:00 15.3 28 Oeste 48 Oeste 0 -- -- 37
2019-04-23 19:00:00 15 24 Oeste 46 Oeste 0 -- -- 47
2019-04-23 18:00:00 15.6 17 Oeste 47 Sudoeste 0 -- -- 43
2019-04-23 17:00:00 16.2 19 Sudoeste 40 Oeste 0.2 -- -- 48
2019-04-23 16:00:00 13.6 13 Oeste 50 Oeste 0.2 -- -- 62
2019-04-23 15:00:00 13.6 31 Oeste 53 Oeste 0 -- -- 53
2019-04-23 14:00:00 16.1 17 Sudoeste 38 Sudoeste 0 -- -- 49
2019-04-23 13:00:00 15.1 17 Oeste 33 Oeste 0 -- -- 51
2019-04-23 12:00:00 14.1 15 Oeste 29 Sudoeste 0 -- -- 60
2019-04-23 11:00:00 11.9 11 Oeste 32 Oeste 0 -- -- 75
2019-04-23 10:00:00 11.7 21 Oeste 32 Oeste 0 -- -- 91
2019-04-23 09:00:00 11.6 9 Oeste 23 Oeste 0.4 -- -- 92
2019-04-23 08:00:00 11.7 8 Oeste 57 Oeste 4 -- -- 93
2019-04-23 07:00:00 13.5 15 Sudoeste 37 Sudoeste 1.8 -- -- 91
2019-04-23 06:00:00 14.1 10 Sudoeste 22 Sudoeste 0 -- -- 82
2019-04-23 05:00:00 14.3 11 Sudoeste 29 Oeste 0 -- -- 78
2019-04-23 04:00:00 14.6 14 Sudoeste 32 Sur 0 -- -- 73
2019-04-23 03:00:00 14.9 10 Sudoeste 38 Sudoeste 0 -- -- 70
2019-04-23 02:00:00 14.9 15 Sudoeste 44 Oeste 0 -- -- 72
2019-04-23 01:00:00 15.1 18 Sudoeste 43 Oeste 0 -- -- 71
2019-04-23 00:00:00 15.2 24 Sudoeste 43 Sudoeste 0 -- -- 73
2019-04-22 23:00:00 15.9 19 Sudoeste 44 Sudoeste 0 -- -- 72
2019-04-22 22:00:00 17.6 20 Sudoeste 44 Sudoeste 0 -- -- 58
2019-04-22 21:00:00 19.7 19 Sudoeste 45 Sudoeste 0 -- -- 44
2019-04-22 20:00:00 22.1 22 Sudoeste 44 Sudoeste 0 -- -- 37
2019-04-22 19:00:00 23.9 23 Sudoeste 44 Oeste 0 -- -- 23
2019-04-22 18:00:00 23.7 22 Oeste 39 Oeste 0 -- -- 30
2019-04-22 17:00:00 23.4 19 Oeste 35 Oeste 0 -- -- 34
2019-04-22 16:00:00 22.2 12 Sudoeste 31 Oeste 0 -- -- 38
2019-04-22 15:00:00 21.2 12 Sudoeste 26 Oeste 0 -- -- 40
2019-04-22 14:00:00 20.8 13 Oeste 23 Sudoeste 0 -- -- 38
2019-04-22 13:00:00 19.7 11 Oeste 22 Oeste 0 -- -- 44
2019-04-22 12:00:00 18.3 7 Noroeste 12 Noroeste 0 -- -- 46
2019-04-22 11:00:00 16.7 4 Noroeste 7 Noroeste 0 -- -- 54
2019-04-22 10:00:00 14.9 4 Norte 6 Noroeste 0 -- -- 60
2019-04-22 09:00:00 12.7 0 Calma 8 Oeste 0 -- -- 71
2019-04-22 08:00:00 10.4 7 Oeste 9 Oeste 0 -- -- 79
2019-04-22 07:00:00 10.9 0 Calma 7 Oeste 0 -- -- 77
2019-04-22 06:00:00 11.5 6 Oeste 9 Oeste 0 -- -- 74
2019-04-22 05:00:00 12.4 0 Calma 6 Oeste 0 -- -- 69
2019-04-22 04:00:00 13.1 4 Oeste 6 Noroeste 0 -- -- 68
2019-04-22 03:00:00 13.5 3 Noroeste 4 Noroeste 0 -- -- 65
2019-04-22 02:00:00 13.9 4 Oeste 7 Noroeste 0 -- -- 64
2019-04-22 01:00:00 14.4 0 Calma 3 Nordeste 0 -- -- 61
2019-04-22 00:00:00 14.9 3 Norte 8 Norte 0 -- -- 57
2019-04-21 23:00:00 15.3 6 Norte 14 Nordeste 0 -- -- 54
2019-04-21 22:00:00 15.6 8 Nordeste 19 Nordeste 0 -- -- 53
2019-04-21 21:00:00 16.3 8 Nordeste 22 Nordeste 0 -- -- 51
2019-04-21 20:00:00 17.2 16 Nordeste 30 Este 0 -- -- 47
2019-04-21 19:00:00 18.1 15 Nordeste 29 Este 0 -- -- 46
2019-04-21 18:00:00 18.8 19 Este 33 Este 0 -- -- 45
2019-04-21 17:00:00 18.9 18 Nordeste 40 Este 0 -- -- 46
2019-04-21 16:00:00 18.5 19 Este 31 Este 0 -- -- 47
2019-04-21 15:00:00 18.7 14 Este 26 Este 0 -- -- 45
2019-04-21 14:00:00 17.7 12 Nordeste 29 Este 0 -- -- 49
2019-04-21 13:00:00 17.4 14 Nordeste 28 Nordeste 0 -- -- 49
2019-04-21 12:00:00 16.8 11 Este 25 Nordeste 0 -- -- 53
2019-04-21 11:00:00 15.1 10 Nordeste 18 Nordeste 0 -- -- 61
2019-04-21 10:00:00 13.6 10 Este 22 Este 0 -- -- 67
2019-04-21 09:00:00 13.3 13 Este 26 Nordeste 0 -- -- 67
2019-04-21 08:00:00 13.2 14 Este 26 Nordeste 0 -- -- 65
2019-04-21 07:00:00 13.7 10 Nordeste 19 Nordeste 0 -- -- 63
2019-04-21 06:00:00 13.4 6 Nordeste 10 Nordeste 0 -- -- 65
2019-04-21 05:00:00 13.5 5 Este 14 Nordeste 0 -- -- 66
2019-04-21 04:00:00 13.6 7 Nordeste 10 Nordeste 0 -- -- 63
2019-04-21 03:00:00 13.7 5 Nordeste 15 Este 0 -- -- 63
2019-04-21 02:00:00 14.9 9 Este 21 Este 0 -- -- 56
2019-04-21 01:00:00 15 10 Este 22 Este 0 -- -- 56
2019-04-21 00:00:00 15.6 13 Este 23 Este 0 -- -- 52
2019-04-20 23:00:00 16 14 Nordeste 31 Este 0 -- -- 52
2019-04-20 22:00:00 16.4 15 Nordeste 36 Nordeste 0 -- -- 53
2019-04-20 21:00:00 17.2 22 Nordeste 42 Nordeste 0 -- -- 51
2019-04-20 20:00:00 18.1 25 Nordeste 46 Nordeste 0 -- -- 49
2019-04-20 19:00:00 18.6 22 Nordeste 41 Nordeste 0 -- -- 47
2019-04-20 18:00:00 19.1 27 Nordeste 39 Nordeste 0 -- -- 46
2019-04-20 17:00:00 19.2 24 Nordeste 40 Este 0 -- -- 47
2019-04-20 16:00:00 18.8 23 Nordeste 38 Nordeste 0 -- -- 48
2019-04-20 15:00:00 19 22 Nordeste 41 Este 0 -- -- 48
2019-04-20 14:00:00 18.3 18 Este 36 Este 0 -- -- 55
2019-04-20 13:00:00 17.4 12 Este 21 Este 0 -- -- 61
2019-04-20 12:00:00 15.7 7 Este 13 Sudeste 0 -- -- 73
2019-04-20 11:00:00 13.5 5 Sur 8 Sur 0 -- -- 87
2019-04-20 10:00:00 11.9 0 Calma 13 Este 0.2 -- -- 92
2019-04-20 09:00:00 11 9 Nordeste 14 Este 0.6 -- -- 91
2019-04-20 08:00:00 10.5 3 Nordeste 5 Norte 0 -- -- 92
2019-04-20 07:00:00 10.3 0 Calma 5 Oeste 0 -- -- 90
2019-04-20 06:00:00 10.3 4 Norte 7 Norte 0 -- -- 91
2019-04-20 05:00:00 10.2 4 Nordeste 6 Nordeste 0 -- -- 92
2019-04-20 04:00:00 10.4 0 Calma 7 Nordeste 0 -- -- 91
2019-04-20 03:00:00 10.6 4 Nordeste 6 Nordeste 0 -- -- 91
2019-04-20 02:00:00 11.2 4 Nordeste 8 Nordeste 0 -- -- 91
2019-04-20 01:00:00 11.9 2 Este 9 Noroeste 0 -- -- 90
2019-04-20 00:00:00 12.8 5 Noroeste 10 Oeste 0 -- -- 85
2019-04-19 23:00:00 13.9 5 Oeste 9 Oeste 0 -- -- 85
2019-04-19 22:00:00 14.3 0 Calma 8 Oeste 0 -- -- 82
2019-04-19 21:00:00 14.9 3 Noroeste 11 Oeste 0.2 -- -- 83
2019-04-19 20:00:00 15.3 3 Este 9 Nordeste 0.2 -- -- 77
2019-04-19 19:00:00 16.3 5 Nordeste 31 Nordeste 0 -- -- 59
2019-04-19 18:00:00 17.4 18 Norte 35 Norte 0 -- -- 56
2019-04-19 17:00:00 20.4 5 Oeste 14 Oeste 0 -- -- 44
2019-04-19 16:00:00 18.8 5 Norte 16 Oeste 0 -- -- 48
2019-04-19 15:00:00 19 5 Este 14 Este 0 -- -- 54
2019-04-19 14:00:00 17.9 6 Norte 13 Nordeste 0 -- -- 61
2019-04-19 13:00:00 16.7 4 Sudeste 17 Nordeste 0 -- -- 67
2019-04-19 12:00:00 15.7 5 Este 14 Este 0 -- -- 72
2019-04-19 11:00:00 14.3 8 Este 14 Este 0 -- -- 78
2019-04-19 10:00:00 12.2 6 Este 10 Este 0 -- -- 96
2019-04-19 09:00:00 10.4 0 Calma 6 Noroeste 0 -- -- 97
2019-04-19 08:00:00 10.1 0 Calma 4 Sudeste 0 -- -- 96
2019-04-19 07:00:00 10.3 0 Calma 2 Sudeste 0 -- -- 97
2019-04-19 06:00:00 10.1 0 Calma 5 Nordeste 0 -- -- 97
2019-04-19 05:00:00 10.2 0 Calma 3 Noroeste 0 -- -- 96
2019-04-19 04:00:00 10.2 0 Calma 5 Sudeste 0 -- -- 96
2019-04-19 03:00:00 10 2 Sudeste 7 Sudeste 0 -- -- 96
2019-04-19 02:00:00 10.5 4 Sur 7 Sur 0 -- -- 94
2019-04-19 01:00:00 10.7 3 Sur 6 Oeste 0.2 -- -- 95
2019-04-19 00:00:00 10.9 4 Noroeste 11 Sudoeste 0 -- -- 93
2019-04-18 23:00:00 11.2 4 Sur 8 Sur 0 -- -- 95
2019-04-18 22:00:00 11.7 3 Sudeste 6 Noroeste 0 -- -- 94
2019-04-18 21:00:00 12.2 3 Noroeste 14 Sudoeste 0 -- -- 92
2019-04-18 20:00:00 12.1 9 Sudoeste 17 Sudoeste 0.8 -- -- 89
2019-04-18 19:00:00 12.4 8 Oeste 21 Noroeste 0.8 -- -- 87
2019-04-18 18:00:00 12.5 14 Noroeste 24 Norte 2.8 -- -- 88
2019-04-18 17:00:00 15.3 11 Nordeste 19 Este 0 -- -- 63
2019-04-18 16:00:00 16.7 10 Sudeste 19 Sudeste 0 -- -- 56
2019-04-18 15:00:00 17.7 10 Noroeste 23 Noroeste 0 -- -- 52
2019-04-18 14:00:00 16.3 9 Sudoeste 28 Oeste 0 -- -- 67
2019-04-18 13:00:00 15.5 20 Oeste 33 Oeste 0 -- -- 67
2019-04-18 12:00:00 16.8 8 Oeste 15 Sudoeste 0 -- -- 58
2019-04-18 11:00:00 16.2 7 Oeste 13 Oeste 0 -- -- 63
2019-04-18 10:00:00 14.5 5 Oeste 10 Oeste 0 -- -- 72
2019-04-18 09:00:00 13.1 3 Noroeste 6 Sur 0 -- -- 82
2019-04-18 08:00:00 12.9 0 Calma 4 Sudeste 0 -- -- 85
2019-04-18 07:00:00 13 3 Sur 5 Sudeste 0 -- -- 84
2019-04-18 06:00:00 13.3 2 Este 8 Este 0 -- -- 80
2019-04-18 05:00:00 13.3 2 Este 5 Sudoeste 0 -- -- 78
2019-04-18 04:00:00 13.3 3 Nordeste 5 Sudoeste 0 -- -- 75
2019-04-18 03:00:00 13.7 4 Este 7 Oeste 0 -- -- 69
2019-04-18 02:00:00 14.3 4 Oeste 9 Noroeste 0 -- -- 64
2019-04-18 01:00:00 14.9 6 Noroeste 19 Sudeste 0 -- -- 59
2019-04-18 00:00:00 15.3 12 Sudeste 17 Sudeste 0 -- -- 56
2019-04-17 23:00:00 15.5 11 Sudeste 22 Oeste 0 -- -- 56
2019-04-17 22:00:00 15.7 10 Oeste 38 Oeste 0 -- -- 56
2019-04-17 21:00:00 16.3 16 Oeste 34 Oeste 0 -- -- 56
2019-04-17 20:00:00 16.8 23 Oeste 58 Oeste 0 -- -- 60
2019-04-17 19:00:00 19.7 20 Oeste 36 Oeste 0 -- -- 51
2019-04-17 18:00:00 20.5 23 Oeste 45 Oeste 0 -- -- 47
2019-04-17 17:00:00 21.8 22 Oeste 40 Oeste 0 -- -- 46
2019-04-17 16:00:00 21.6 18 Oeste 30 Oeste 0 -- -- 44
2019-04-17 15:00:00 20.9 15 Oeste 44 Sur 0 -- -- 42
2019-04-17 14:00:00 21.7 27 Sur 45 Sur 0 -- -- 42
2019-04-17 13:00:00 21.7 22 Sur 36 Sur 0 -- -- 42
2019-04-17 12:00:00 21.3 3 Sudeste 14 Este 0 -- -- 43
2019-04-17 11:00:00 17.8 5 Nordeste 11 Nordeste 0 -- -- 52
2019-04-17 10:00:00 14.2 5 Nordeste 13 Nordeste 0 -- -- 64
2019-04-17 09:00:00 11.8 5 Este 13 Este 0 -- -- 71
2019-04-17 08:00:00 11.4 9 Este 18 Este 0 -- -- 71
2019-04-17 07:00:00 12 8 Este 14 Este 0 -- -- 66
2019-04-17 06:00:00 11.9 5 Este 10 Este 0 -- -- 70
2019-04-17 05:00:00 12.5 4 Este 5 Nordeste 0 -- -- 62
2019-04-17 04:00:00 13.5 4 Norte 6 Norte 0 -- -- 56
2019-04-17 03:00:00 14.2 3 Norte 10 Este 0 -- -- 48
2019-04-17 02:00:00 16.1 6 Sudeste 13 Sur 0 -- -- 40
2019-04-17 01:00:00 16.4 6 Noroeste 22 Sur 0 -- -- 34
2019-04-17 00:00:00 18.2 14 Sur 24 Sur 0 -- -- 25
2019-04-16 23:00:00 18.8 15 Sur 27 Sur 0 -- -- 32
2019-04-16 22:00:00 21 15 Sur 24 Sur 0 -- -- 33
2019-04-16 21:00:00 22.9 7 Sudoeste 14 Oeste 0 -- -- 39
2019-04-16 20:00:00 25.9 7 Sudoeste 20 Sudoeste 0 -- -- 31
2019-04-16 19:00:00 26.4 6 Sudoeste 12 Oeste 0 -- -- 28
2019-04-16 18:00:00 26.1 5 Oeste 13 Sudoeste 0 -- -- 28
2019-04-16 17:00:00 25.1 6 Sudoeste 20 Este 0 -- -- 26
2019-04-16 16:00:00 24.1 14 Este 23 Nordeste 0 -- -- 32
2019-04-16 15:00:00 22.6 8 Este 23 Nordeste 0 -- -- 41
2019-04-16 14:00:00 21.1 14 Este 24 Este 0 -- -- 52
2019-04-16 13:00:00 19.7 10 Este 21 Nordeste 0 -- -- 63
2019-04-16 12:00:00 17 10 Nordeste 21 Nordeste 0 -- -- 74
2019-04-16 11:00:00 14.6 9 Este 18 Nordeste 0 -- -- 84
2019-04-16 10:00:00 12.2 6 Sudeste 14 Este 0 -- -- 98
2019-04-16 09:00:00 11.4 5 Este 14 Este 0 -- -- 97
2019-04-16 08:00:00 10.6 3 Nordeste 9 Nordeste 0 -- -- 97
2019-04-16 07:00:00 10.7 3 Sudoeste 4 Sudoeste 0 -- -- 95
2019-04-16 06:00:00 10.7 2 Este 5 Este 0 -- -- 93
2019-04-16 05:00:00 11.7 3 Sur 6 Sudoeste 0 -- -- 92
2019-04-16 04:00:00 12.6 4 Sudoeste 5 Sudoeste 0 -- -- 92
2019-04-16 03:00:00 13 0 Calma 8 Oeste 0 -- -- 90
2019-04-16 02:00:00 13.9 8 Oeste 21 Sudoeste 0 -- -- 86
2019-04-16 01:00:00 14.7 7 Sudoeste 22 Sudoeste 0 -- -- 82
2019-04-16 00:00:00 15.7 14 Sudoeste 28 Sudoeste 0 -- -- 76
2019-04-15 23:00:00 17.1 13 Sudoeste 35 Sudoeste 0 -- -- 68
2019-04-15 22:00:00 18.5 16 Sudoeste 35 Sudoeste 0 -- -- 60
2019-04-15 21:00:00 19.8 17 Sudoeste 48 Sudoeste 0 -- -- 52
2019-04-15 20:00:00 22 26 Sudoeste 48 Sudoeste 0 -- -- 47
2019-04-15 19:00:00 25.4 21 Sudoeste 49 Oeste 0 -- -- 27
2019-04-15 18:00:00 25.9 23 Oeste 47 Oeste 0 -- -- 32
2019-04-15 17:00:00 25.8 19 Sudoeste 39 Sudoeste 0 -- -- 29
2019-04-15 16:00:00 25.9 15 Sudoeste 36 Oeste 0 -- -- 25
2019-04-15 15:00:00 25.7 17 Oeste 34 Oeste 0 -- -- 22
2019-04-15 14:00:00 24.8 14 Sudoeste 26 Sudoeste 0 -- -- 27
2019-04-15 13:00:00 22.9 12 Sudoeste 24 Sudoeste 0 -- -- 42
2019-04-15 12:00:00 21.9 10 Sudoeste 22 Sudoeste 0 -- -- 46
2019-04-15 11:00:00 20.4 6 Sudoeste 12 Sudoeste 0 -- -- 55
2019-04-15 10:00:00 17.7 4 Este 8 Este 0 -- -- 69
2019-04-15 09:00:00 14.7 0 Calma 7 Este 0 -- -- 87
2019-04-15 08:00:00 13.3 5 Este 12 Este 0 -- -- 89
2019-04-15 07:00:00 13.8 9 Este 15 Este 0 -- -- 88
2019-04-15 06:00:00 14.5 9 Este 14 Este 0 -- -- 83
2019-04-15 05:00:00 15.1 8 Este 11 Nordeste 0 -- -- 81
2019-04-15 04:00:00 15.7 5 Este 10 Este 0 -- -- 79
2019-04-15 03:00:00 16.8 6 Este 12 Este 0 -- -- 74
2019-04-15 02:00:00 17.5 5 Este 7 Este 0 -- -- 72
2019-04-15 01:00:00 18.2 5 Sudeste 8 Este 0 -- -- 69
2019-04-15 00:00:00 18.9 5 Este 9 Nordeste 0 -- -- 67
2019-04-14 23:00:00 19.6 5 Este 6 Este 0 -- -- 61
2019-04-14 22:00:00 21.9 2 Sudeste 3 Sudeste 0 -- -- 45
2019-04-14 21:00:00 23.3 0 Calma 5 Oeste 0 -- -- 42
2019-04-14 20:00:00 24.8 3 Sudoeste 14 Oeste 0 -- -- 37
2019-04-14 19:00:00 25.7 9 Sudoeste 17 Sudoeste 0 -- -- 38
2019-04-14 18:00:00 26.1 4 Oeste 15 Oeste 0 -- -- 35
2019-04-14 17:00:00 25.3 5 Oeste 13 Noroeste 0 -- -- 37
2019-04-14 16:00:00 25.2 7 Noroeste 14 Oeste 0 -- -- 40
2019-04-14 15:00:00 24.1 5 Sur 14 Sur 0 -- -- 41
2019-04-14 14:00:00 22.5 7 Norte 13 Norte 0 -- -- 44
2019-04-14 13:00:00 21.3 5 Nordeste 12 Nordeste 0 -- -- 49
2019-04-14 12:00:00 19.6 4 Este 12 Este 0 -- -- 49
2019-04-14 11:00:00 16.8 5 Nordeste 11 Nordeste 0 -- -- 57
2019-04-14 10:00:00 14.4 5 Este 10 Este 0 -- -- 69
2019-04-14 09:00:00 11.5 3 Nordeste 6 Este 0 -- -- 86
2019-04-14 08:00:00 9.8 5 Este 7 Este 0 -- -- 91
2019-04-14 07:00:00 9.8 4 Este 8 Este 0 -- -- 91
2019-04-14 06:00:00 10.1 3 Este 5 Este 0 -- -- 88
2019-04-14 05:00:00 11.1 3 Sur 6 Sudeste 0 -- -- 84
2019-04-14 04:00:00 11.9 2 Este 6 Oeste 0 -- -- 78
2019-04-14 03:00:00 12.9 3 Oeste 11 Sudoeste 0 -- -- 71
2019-04-14 02:00:00 13.9 7 Sudoeste 19 Sudoeste 0 -- -- 64
2019-04-14 01:00:00 15.1 13 Sudoeste 21 Sudoeste 0 -- -- 57
2019-04-14 00:00:00 16.7 9 Sudoeste 17 Sudoeste 0 -- -- 52
2019-04-13 23:00:00 17.8 9 Oeste 15 Sudoeste 0 -- -- 47
2019-04-13 22:00:00 18.3 9 Sudoeste 16 Sur 0 -- -- 43
2019-04-13 21:00:00 21 5 Sudoeste 19 Sudoeste 0 -- -- 36
2019-04-13 20:00:00 23.5 9 Oeste 24 Sudoeste 0 -- -- 28
2019-04-13 19:00:00 24.2 11 Sudoeste 25 Oeste 0 -- -- 28
2019-04-13 18:00:00 24.3 10 Oeste 27 Oeste 0 -- -- 27
2019-04-13 17:00:00 24.2 8 Oeste 24 Oeste 0 -- -- 28
2019-04-13 16:00:00 23.4 5 Este 21 Oeste 0 -- -- 30
2019-04-13 15:00:00 22.8 6 Norte 17 Oeste 0 -- -- 28
2019-04-13 14:00:00 21.8 5 Nordeste 16 Sur 0 -- -- 30
2019-04-13 13:00:00 20.3 3 Este 10 Este 0 -- -- 39
2019-04-13 12:00:00 17.9 5 Este 13 Este 0 -- -- 49
2019-04-13 11:00:00 14.8 6 Este 12 Nordeste 0 -- -- 61
2019-04-13 10:00:00 11.6 8 Este 13 Este 0 -- -- 73
2019-04-13 09:00:00 9.6 4 Este 8 Este 0 -- -- 83
2019-04-13 08:00:00 7.6 6 Este 9 Este 0 -- -- 82
2019-04-13 07:00:00 7.9 3 Nordeste 6 Este 0 -- -- 85
2019-04-13 06:00:00 8.7 3 Este 8 Este 0 -- -- 86
2019-04-13 05:00:00 9.3 4 Este 5 Este 0 -- -- 82
2019-04-13 04:00:00 10.1 2 Este 4 Nordeste 0 -- -- 82
2019-04-13 03:00:00 11.1 0 Calma 9 Sudoeste 0 -- -- 75
2019-04-13 02:00:00 12 3 Sur 13 Sur 0 -- -- 71
2019-04-13 01:00:00 12.9 3 Sudeste 7 Oeste 0 -- -- 66
2019-04-13 00:00:00 14.8 4 Oeste 8 Sur 0 -- -- 53
2019-04-12 23:00:00 15 6 Oeste 13 Sur 0 -- -- 55
2019-04-12 22:00:00 16.7 8 Sur 11 Sudoeste 0 -- -- 48
2019-04-12 21:00:00 19.7 6 Sudoeste 11 Sudoeste 0 -- -- 37
2019-04-12 20:00:00 21.8 9 Sudoeste 19 Sudoeste 0 -- -- 31
2019-04-12 19:00:00 22.3 8 Sudoeste 18 Sur 0 -- -- 28
2019-04-12 18:00:00 22.9 6 Oeste 17 Sur 0 -- -- 27
2019-04-12 17:00:00 22.4 6 Sudoeste 17 Sudoeste 0 -- -- 26
2019-04-12 16:00:00 21.5 5 Nordeste 14 Norte 0 -- -- 27
2019-04-12 15:00:00 21 6 Sur 13 Sudoeste 0 -- -- 25
2019-04-12 14:00:00 19.6 4 Norte 15 Sudeste 0 -- -- 39
2019-04-12 13:00:00 17.9 8 Este 20 Este 0 -- -- 43
2019-04-12 12:00:00 15.9 12 Nordeste 20 Este 0 -- -- 52
2019-04-12 11:00:00 13.6 13 Nordeste 21 Este 0 -- -- 59
2019-04-12 10:00:00 11.5 9 Nordeste 15 Nordeste 0 -- -- 68
2019-04-12 09:00:00 8.8 4 Nordeste 8 Nordeste 0 -- -- 79
2019-04-12 08:00:00 6.7 0 Calma 9 Este 0 -- -- 90
2019-04-12 07:00:00 6.7 5 Este 13 Nordeste 0 -- -- 89
2019-04-12 06:00:00 7.6 6 Este 11 Nordeste 0 -- -- 81
2019-04-12 05:00:00 7.8 2 Sudeste 7 Nordeste 0 -- -- 81
2019-04-12 04:00:00 8.8 3 Este 11 Nordeste 0 -- -- 74
2019-04-12 03:00:00 9.7 6 Este 10 Nordeste 0 -- -- 69
2019-04-12 02:00:00 10.6 4 Este 8 Sur 0 -- -- 72
2019-04-12 01:00:00 11.5 3 Este 18 Nordeste 0 -- -- 67
2019-04-12 00:00:00 13.2 2 Este 7 Norte 0 -- -- 54
2019-04-11 23:00:00 14.7 2 Norte 6 Nordeste 0 -- -- 54
2019-04-11 22:00:00 16.4 3 Norte 9 Noroeste 0 -- -- 49
2019-04-11 21:00:00 18.3 2 Oeste 10 Oeste 0 -- -- 46
2019-04-11 20:00:00 19.8 6 Oeste 15 Oeste 0 -- -- 37
2019-04-11 19:00:00 20.8 5 Sudoeste 16 Sudoeste 0 -- -- 35
2019-04-11 18:00:00 21.5 9 Oeste 19 Sudoeste 0 -- -- 32
2019-04-11 17:00:00 21 8 Noroeste 18 Oeste 0 -- -- 34
2019-04-11 16:00:00 20.3 4 Sur 14 Oeste 0 -- -- 35
2019-04-11 15:00:00 19.2 8 Sudoeste 14 Sudoeste 0 -- -- 39
2019-04-11 14:00:00 18 6 Este 26 Nordeste 0 -- -- 42
2019-04-11 13:00:00 16.5 6 Nordeste 14 Noroeste 0 -- -- 51
2019-04-11 12:00:00 15.2 9 Este 17 Este 0 -- -- 58
2019-04-11 11:00:00 13 7 Nordeste 14 Este 0 -- -- 64
2019-04-11 10:00:00 11.5 5 Norte 10 Norte 0 -- -- 71
2019-04-11 09:00:00 9.8 3 Este 8 Noroeste 0 -- -- 80
2019-04-11 08:00:00 8.6 5 Noroeste 17 Norte 0 -- -- 81
2019-04-11 07:00:00 10 9 Noroeste 18 Noroeste 0 -- -- 74
2019-04-11 06:00:00 9.8 6 Sudoeste 10 Noroeste 0 -- -- 76
2019-04-11 05:00:00 11 4 Noroeste 18 Oeste 0 -- -- 68
2019-04-11 04:00:00 11.4 7 Noroeste 21 Norte 0 -- -- 67
2019-04-11 03:00:00 11.7 4 Nordeste 22 Noroeste 0 -- -- 66
2019-04-11 02:00:00 12.2 9 Oeste 14 Noroeste 0 -- -- 62
2019-04-11 01:00:00 11.8 7 Oeste 15 Oeste 0 -- -- 63
2019-04-11 00:00:00 12.4 8 Oeste 13 Oeste 0 -- -- 59
2019-04-10 23:00:00 12.9 4 Noroeste 12 Oeste 0 -- -- 57
2019-04-10 22:00:00 14.3 8 Oeste 14 Oeste 0 -- -- 51
2019-04-10 21:00:00 16.4 9 Noroeste 23 Noroeste 0 -- -- 41
2019-04-10 20:00:00 18.5 15 Noroeste 31 Noroeste 0 -- -- 36
2019-04-10 19:00:00 18.9 15 Noroeste 35 Noroeste 0 -- -- 34
2019-04-10 18:00:00 19.5 18 Noroeste 31 Noroeste 0 -- -- 31
2019-04-10 17:00:00 18.2 13 Noroeste 26 Noroeste 0 -- -- 36
2019-04-10 16:00:00 17.8 10 Noroeste 24 Oeste 0 -- -- 40
2019-04-10 15:00:00 16.5 6 Sur 22 Sudoeste 0 -- -- 58
2019-04-10 14:00:00 16.2 8 Oeste 19 Oeste 0 -- -- 57
2019-04-10 13:00:00 14.8 6 Oeste 16 Oeste 0 -- -- 64
2019-04-10 12:00:00 13.1 7 Sudoeste 18 Oeste 0 -- -- 67
2019-04-10 11:00:00 12.1 12 Sudoeste 19 Oeste 0 -- -- 75
2019-04-10 10:00:00 11.4 6 Oeste 14 Sudoeste 0 -- -- 79
2019-04-10 09:00:00 9.4 4 Oeste 17 Sudoeste 0 -- -- 88
2019-04-10 08:00:00 8.2 4 Sudoeste 10 Noroeste 0 -- -- 94
2019-04-10 07:00:00 7.8 4 Sudoeste 10 Sudoeste 0 -- -- 92
2019-04-10 06:00:00 8.2 5 Oeste 13 Oeste 0 -- -- 90
2019-04-10 05:00:00 9.1 3 Noroeste 13 Oeste 0 -- -- 86
2019-04-10 04:00:00 9.3 5 Oeste 12 Oeste 0 -- -- 89
2019-04-10 03:00:00 10.2 4 Noroeste 13 Noroeste 0 -- -- 86
2019-04-10 02:00:00 11 5 Noroeste 11 Oeste 0 -- -- 85
2019-04-10 01:00:00 12.3 9 Oeste 19 Oeste 0 -- -- 80
2019-04-10 00:00:00 12.7 13 Oeste 18 Oeste 0 -- -- 78
2019-04-09 23:00:00 12.8 12 Oeste 18 Oeste 0 -- -- 75
2019-04-09 22:00:00 13.1 8 Sudoeste 13 Sudoeste 0 -- -- 77
2019-04-09 21:00:00 14.2 9 Sudoeste 36 Oeste 0 -- -- 73
2019-04-09 20:00:00 15.8 17 Oeste 41 Oeste 0 -- -- 66
2019-04-09 19:00:00 16.3 21 Oeste 41 Oeste 0 -- -- 62
2019-04-09 18:00:00 17.2 18 Sudoeste 42 Oeste 0 -- -- 58
2019-04-09 17:00:00 17.1 23 Oeste 40 Oeste 0 -- -- 58
2019-04-09 16:00:00 17.4 19 Oeste 50 Sudoeste 0 -- -- 58
2019-04-09 15:00:00 17.1 17 Oeste 43 Oeste 0 -- -- 57
2019-04-09 14:00:00 16.3 20 Oeste 41 Sudoeste 0 -- -- 65
2019-04-09 13:00:00 15.2 13 Oeste 25 Sudoeste 0 -- -- 71
2019-04-09 12:00:00 12.7 6 Oeste 12 Oeste 0 -- -- 84
2019-04-09 11:00:00 10 2 Noroeste 6 Noroeste 0 -- -- 99
2019-04-09 10:00:00 9 3 Norte 6 Norte 0 -- -- 99
2019-04-09 09:00:00 7.5 4 Este 5 Este 0 -- -- 99
2019-04-09 08:00:00 6.9 0 Calma 2 Sudeste 0 -- -- 98
2019-04-09 07:00:00 7.7 2 Oeste 5 Sudoeste 0.2 -- -- 98
2019-04-09 06:00:00 8.2 0 Calma 6 Oeste 0 -- -- 98
2019-04-09 05:00:00 9.5 4 Oeste 6 Oeste 0 -- -- 98
2019-04-09 04:00:00 9.9 5 Oeste 14 Oeste 0 -- -- 97
2019-04-09 03:00:00 10.4 5 Sudoeste 11 Sudoeste 0 -- -- 97
2019-04-09 02:00:00 11 5 Sudoeste 9 Sudoeste 0 -- -- 95
2019-04-09 01:00:00 12 4 Oeste 17 Oeste 0 -- -- 94
2019-04-09 00:00:00 12.3 8 Oeste 24 Sudoeste 0 -- -- 92
2019-04-08 23:00:00 13.1 13 Sudoeste 24 Oeste 0 -- -- 89
2019-04-08 22:00:00 13.8 9 Sudoeste 29 Sudoeste 0.6 -- -- 90
2019-04-08 21:00:00 14.6 7 Sudoeste 28 Sudoeste 0 -- -- 85
2019-04-08 20:00:00 15.6 11 Sudoeste 32 Oeste 0 -- -- 81
2019-04-08 19:00:00 14.9 18 Sudoeste 36 Sudoeste 0 -- -- 84
2019-04-08 18:00:00 15.3 18 Sudoeste 32 Sudoeste 0.2 -- -- 91
2019-04-08 17:00:00 14.9 9 Sudoeste 40 Oeste 15 -- -- 92
2019-04-08 16:00:00 16.5 13 Sudoeste 37 Sudoeste 0 -- -- 85
2019-04-08 15:00:00 16.9 17 Sudoeste 35 Sudoeste 0 -- -- 83
2019-04-08 14:00:00 16.3 17 Sudoeste 39 Oeste 0.2 -- -- 82
2019-04-08 13:00:00 14.9 8 Sudoeste 32 Oeste 1.4 -- -- 95
2019-04-08 12:00:00 15.8 14 Sudoeste 31 Oeste 0.2 -- -- 84
2019-04-08 11:00:00 14.5 13 Sudoeste 26 Sudoeste 0.2 -- -- 94
2019-04-08 10:00:00 13.9 8 Sudoeste 17 Sudoeste 0.8 -- -- 97
2019-04-08 09:00:00 13.4 7 Sudoeste 19 Sudoeste 1.2 -- -- 97
2019-04-08 08:00:00 13.3 10 Sudoeste 29 Oeste 0.6 -- -- 96
2019-04-08 07:00:00 13.5 11 Sudoeste 27 Sudoeste 1.8 -- -- 96
2019-04-08 06:00:00 13.7 10 Sudoeste 22 Sudoeste 0 -- -- 95
2019-04-08 05:00:00 13.7 10 Sudoeste 23 Sudoeste 0 -- -- 95
2019-04-08 04:00:00 13.9 9 Oeste 24 Oeste 0 -- -- 96
2019-04-08 03:00:00 13.9 6 Sudoeste 15 Oeste 0 -- -- 97
2019-04-08 02:00:00 13.8 5 Oeste 18 Oeste 0.4 -- -- 97
2019-04-08 01:00:00 13.4 8 Oeste 17 Oeste 0 -- -- 97
2019-04-08 00:00:00 12.9 4 Sudoeste 8 Sudoeste 0 -- -- 97
2019-04-07 23:00:00 12.7 0 Calma 5 Oeste 0 -- -- 97
2019-04-07 22:00:00 12.5 2 Este 8 Nordeste 0.2 -- -- 97
2019-04-07 21:00:00 12.6 3 Este 8 Nordeste 3.6 -- -- 96
2019-04-07 20:00:00 13 3 Nordeste 5 Nordeste 0.2 -- -- 94
2019-04-07 19:00:00 13.6 3 Oeste 13 Oeste 0 -- -- 88
2019-04-07 18:00:00 14.1 7 Sudoeste 24 Oeste 0.2 -- -- 80
2019-04-07 17:00:00 14.7 15 Sudoeste 31 Oeste 0 -- -- 76
2019-04-07 16:00:00 14.9 16 Oeste 36 Oeste 0.4 -- -- 71
2019-04-07 15:00:00 15.7 18 Oeste 41 Oeste 0 -- -- 64
2019-04-07 14:00:00 15.8 19 Oeste 42 Oeste 0 -- -- 58
2019-04-07 13:00:00 15.3 13 Oeste 22 Sudoeste 0 -- -- 66
2019-04-07 12:00:00 13.3 10 Oeste 21 Sudoeste 0 -- -- 75
2019-04-07 11:00:00 12.4 9 Sudoeste 17 Sudoeste 0 -- -- 82
2019-04-07 10:00:00 10.4 10 Sudoeste 18 Sudoeste 0 -- -- 88
2019-04-07 09:00:00 9.3 9 Sudoeste 17 Sudoeste 0 -- -- 93
2019-04-07 08:00:00 8.6 5 Sudoeste 7 Sur 0 -- -- 94
2019-04-07 07:00:00 8.8 2 Noroeste 17 Oeste 0 -- -- 92
2019-04-07 06:00:00 8.7 10 Oeste 23 Oeste 0 -- -- 92
2019-04-07 05:00:00 9 12 Oeste 32 Oeste 0 -- -- 91
2019-04-07 04:00:00 8.8 15 Oeste 31 Oeste 0 -- -- 91
2019-04-07 03:00:00 8.8 12 Oeste 25 Oeste 0 -- -- 91
2019-04-07 02:00:00 9.4 11 Oeste 22 Oeste 0 -- -- 88
2019-04-07 01:00:00 9.7 4 Sudoeste 14 Sudoeste 0 -- -- 91
2019-04-07 00:00:00 10 8 Oeste 13 Oeste 0 -- -- 91
2019-04-06 23:00:00 9.9 4 Sudoeste 14 Noroeste 0.6 -- -- 92
2019-04-06 22:00:00 9.9 2 Oeste 10 Sudoeste 0 -- -- 91
2019-04-06 21:00:00 10.3 8 Sudoeste 19 Sudoeste 0.4 -- -- 86
2019-04-06 20:00:00 11.3 9 Norte 27 Norte 0 -- -- 77
2019-04-06 19:00:00 13.2 12 Noroeste 41 Norte 0.2 -- -- 68
2019-04-06 18:00:00 12.1 12 Noroeste 39 Oeste 0 -- -- 72
2019-04-06 17:00:00 14 23 Sudoeste 46 Sudoeste 0 -- -- 67
2019-04-06 16:00:00 12.9 19 Oeste 34 Sudoeste 0.2 -- -- 70
2019-04-06 15:00:00 9.4 10 Oeste 39 Norte 6.4 -- -- 93
2019-04-06 14:00:00 14.2 18 Oeste 43 Oeste 0 -- -- 63
2019-04-06 13:00:00 13.3 17 Sudoeste 30 Sudoeste 0 -- -- 75
2019-04-06 12:00:00 10.6 10 Sudoeste 19 Oeste 0 -- -- 91
2019-04-06 11:00:00 8.4 3 Oeste 10 Noroeste 0.2 -- -- 97
2019-04-06 10:00:00 8 6 Oeste 12 Oeste 0.2 -- -- 97
2019-04-06 09:00:00 6.7 3 Noroeste 5 Sur 0 -- -- 97
2019-04-06 08:00:00 5.9 4 Oeste 8 Oeste 0 -- -- 97
2019-04-06 07:00:00 6.1 4 Oeste 12 Oeste 0 -- -- 96
2019-04-06 06:00:00 6.3 6 Oeste 16 Oeste 0 -- -- 96
2019-04-06 05:00:00 6.7 8 Oeste 18 Sudoeste 0.2 -- -- 95
2019-04-06 04:00:00 7.2 9 Sudoeste 23 Oeste 0 -- -- 95
2019-04-06 03:00:00 7.5 10 Sudoeste 32 Sudoeste 1.4 -- -- 93
2019-04-06 02:00:00 8.1 13 Oeste 25 Oeste 0 -- -- 91
2019-04-06 01:00:00 8 14 Sudoeste 25 Sudoeste 0 -- -- 90
2019-04-06 00:00:00 8.1 10 Sudoeste 16 Sudoeste 0 -- -- 93
2019-04-05 23:00:00 8.4 6 Oeste 18 Sudoeste 0 -- -- 92
2019-04-05 22:00:00 8.8 11 Sudoeste 39 Sudoeste 1.8 -- -- 90
2019-04-05 21:00:00 10.4 15 Sudoeste 39 Oeste 0 -- -- 67
2019-04-05 20:00:00 13.3 26 Oeste 48 Oeste 0 -- -- 47
2019-04-05 19:00:00 14.5 22 Oeste 55 Oeste 0 -- -- 37
2019-04-05 18:00:00 15.2 24 Oeste 44 Sudoeste 0 -- -- 37
2019-04-05 17:00:00 15 27 Oeste 42 Oeste 0 -- -- 42
2019-04-05 16:00:00 14.9 23 Oeste 45 Oeste 0 -- -- 42
2019-04-05 15:00:00 15 27 Oeste 48 Oeste 0 -- -- 46
2019-04-05 14:00:00 13.3 11 Noroeste 37 Oeste 0 -- -- 68
2019-04-05 13:00:00 12.6 19 Sudoeste 37 Sur 1 -- -- 82
2019-04-05 12:00:00 11.4 12 Sudoeste 22 Oeste 0.2 -- -- 92
2019-04-05 11:00:00 10.5 6 Sudoeste 19 Sudoeste 0.2 -- -- 93
2019-04-05 10:00:00 9.4 8 Sur 24 Sudoeste 1.4 -- -- 93
2019-04-05 09:00:00 8.9 6 Sur 16 Sudeste 0.6 -- -- 93
2019-04-05 08:00:00 8.6 8 Sudoeste 45 Oeste 3.4 -- -- 91
2019-04-05 07:00:00 9.7 11 Sur 22 Sur 1.2 -- -- 89
2019-04-05 06:00:00 10.6 9 Sudoeste 18 Sudoeste 0 -- -- 61
2019-04-05 05:00:00 10.9 7 Sudoeste 23 Sudoeste 0 -- -- 58
2019-04-05 04:00:00 11 11 Sudoeste 23 Sudoeste 0 -- -- 57
2019-04-05 03:00:00 11 7 Sudoeste 22 Oeste 0 -- -- 58
2019-04-05 02:00:00 11.1 10 Oeste 28 Sudoeste 0 -- -- 58
2019-04-05 01:00:00 11.4 13 Sudoeste 31 Sudoeste 0 -- -- 55
2019-04-05 00:00:00 11.6 15 Sudoeste 33 Sudoeste 0 -- -- 53
2019-04-04 23:00:00 12.8 19 Sudoeste 41 Oeste 0 -- -- 48
2019-04-04 22:00:00 14 19 Sudoeste 46 Sudoeste 0 -- -- 42
2019-04-04 21:00:00 15.8 18 Sudoeste 42 Sudoeste 0 -- -- 31
2019-04-04 20:00:00 18 19 Sudoeste 40 Sudoeste 0 -- -- 27
2019-04-04 19:00:00 19.2 17 Sudoeste 33 Sudoeste 0 -- -- 18
2019-04-04 18:00:00 19.7 14 Sudoeste 30 Sudoeste 0 -- -- 20
2019-04-04 17:00:00 19.2 13 Sudoeste 27 Oeste 0 -- -- 24
2019-04-04 16:00:00 18.4 13 Oeste 23 Oeste 0 -- -- 25
2019-04-04 15:00:00 17.6 11 Sudoeste 22 Oeste 0 -- -- 27
2019-04-04 14:00:00 16.8 9 Sur 16 Sur 0 -- -- 28
2019-04-04 13:00:00 15.5 3 Sudoeste 13 Este 0 -- -- 31
2019-04-04 12:00:00 13.9 4 Sudoeste 14 Este 0 -- -- 33
2019-04-04 11:00:00 12.2 3 Norte 13 Norte 0 -- -- 39
2019-04-04 10:00:00 9.6 9 Noroeste 14 Norte 0 -- -- 48
2019-04-04 09:00:00 7.7 3 Noroeste 9 Oeste 0 -- -- 59
2019-04-04 08:00:00 7.5 5 Noroeste 17 Noroeste 0 -- -- 52
2019-04-04 07:00:00 7.7 5 Noroeste 18 Noroeste 0 -- -- 54
2019-04-04 06:00:00 8.5 8 Noroeste 14 Noroeste 0 -- -- 51
2019-04-04 05:00:00 9.8 3 Noroeste 15 Norte 0 -- -- 44
2019-04-04 04:00:00 10.7 9 Noroeste 14 Noroeste 0 -- -- 41
2019-04-04 03:00:00 11 6 Oeste 12 Noroeste 0 -- -- 47
2019-04-04 02:00:00 12.1 5 Noroeste 9 Noroeste 0 -- -- 46
2019-04-04 01:00:00 13.1 3 Noroeste 15 Norte 0 -- -- 47
2019-04-04 00:00:00 13.4 5 Oeste 16 Noroeste 0 -- -- 51
2019-04-03 23:00:00 15.2 6 Oeste 13 Noroeste 0 -- -- 46
2019-04-03 22:00:00 16.4 6 Noroeste 16 Noroeste 0 -- -- 40
2019-04-03 21:00:00 18.2 8 Noroeste 30 Sudoeste 0 -- -- 38
2019-04-03 20:00:00 21.1 16 Oeste 42 Oeste 0 -- -- 27
2019-04-03 19:00:00 22.2 22 Sudoeste 44 Oeste 0 -- -- 25
2019-04-03 18:00:00 22.8 21 Oeste 43 Oeste 0 -- -- 22
2019-04-03 17:00:00 22.6 24 Oeste 43 Oeste 0 -- -- 27
2019-04-03 16:00:00 22.6 17 Oeste 49 Oeste 0 -- -- 29
2019-04-03 15:00:00 22.4 17 Sudoeste 42 Noroeste 0 -- -- 27
2019-04-03 14:00:00 21.5 15 Sudoeste 32 Sudoeste 0 -- -- 31
2019-04-03 13:00:00 19.9 5 Noroeste 14 Oeste 0 -- -- 39
2019-04-03 12:00:00 16.7 3 Norte 9 Este 0 -- -- 56
2019-04-03 11:00:00 13 4 Este 9 Este 0 -- -- 91
2019-04-03 10:00:00 10.8 5 Nordeste 9 Este 0 -- -- 95
2019-04-03 09:00:00 9.9 2 Este 5 Este 0 -- -- 96
2019-04-03 08:00:00 9.1 3 Este 6 Este 0 -- -- 95
2019-04-03 07:00:00 9.5 3 Sudeste 4 Este 0 -- -- 95
2019-04-03 06:00:00 9.7 0 Calma 4 Sudoeste 0 -- -- 94
2019-04-03 05:00:00 10.1 3 Sudoeste 6 Sur 0 -- -- 92
2019-04-03 04:00:00 10.9 0 Calma 9 Sur 0 -- -- 90
2019-04-03 03:00:00 11.5 0 Calma 7 Oeste 0 -- -- 89
2019-04-03 02:00:00 12.7 4 Oeste 8 Sudoeste 0 -- -- 81
2019-04-03 01:00:00 14.2 0 Calma 8 Sudoeste 0 -- -- 74
2019-04-03 00:00:00 15 6 Oeste 8 Sudoeste 0 -- -- 70
2019-04-02 23:00:00 15.6 3 Noroeste 12 Sudoeste 0 -- -- 66
2019-04-02 22:00:00 16.9 10 Sudoeste 14 Sudoeste 0 -- -- 60
2019-04-02 21:00:00 18.8 6 Sudoeste 15 Sudoeste 0 -- -- 50
2019-04-02 20:00:00 20.8 9 Sudoeste 20 Oeste 0 -- -- 45
2019-04-02 19:00:00 21.8 11 Oeste 21 Sudoeste 0 -- -- 41
2019-04-02 18:00:00 22 6 Oeste 21 Sudoeste 0 -- -- 41
2019-04-02 17:00:00 21.6 5 Norte 15 Oeste 0 -- -- 40
2019-04-02 16:00:00 20.8 5 Noroeste 13 Sur 0 -- -- 51
2019-04-02 15:00:00 19.7 4 Sudoeste 12 Nordeste 0 -- -- 57
2019-04-02 14:00:00 17.9 8 Nordeste 17 Nordeste 0 -- -- 67
2019-04-02 13:00:00 16.6 4 Norte 9 Nordeste 0 -- -- 73
2019-04-02 12:00:00 15.4 2 Sudeste 10 Noroeste 0 -- -- 78
2019-04-02 11:00:00 14.8 6 Noroeste 12 Noroeste 0 -- -- 82
2019-04-02 10:00:00 13.7 3 Sur 8 Oeste 0 -- -- 85
2019-04-02 09:00:00 13 3 Sudoeste 7 Sudoeste 0 -- -- 93
2019-04-02 08:00:00 12.8 3 Sur 5 Noroeste 0 -- -- 93
2019-04-02 07:00:00 12.9 3 Sudoeste 6 Oeste 0 -- -- 95
2019-04-02 06:00:00 12.7 0 Calma 4 Sur 0 -- -- 94
2019-04-02 05:00:00 12.5 0 Calma 3 Este 0 -- -- 95
2019-04-02 04:00:00 12.3 2 Sur 8 Sur 0 -- -- 95
2019-04-02 03:00:00 12.2 4 Sur 10 Sudoeste 0 -- -- 95
2019-04-02 02:00:00 11.7 2 Sudeste 5 Este 0 -- -- 93
2019-04-02 01:00:00 12.1 2 Este 10 Sur 0 -- -- 91
2019-04-02 00:00:00 12.6 6 Sur 12 Sur 0 -- -- 91
2019-04-01 23:00:00 12.8 7 Sur 11 Sur 0 -- -- 89
2019-04-01 22:00:00 13.4 3 Sudeste 4 Sudeste 0 -- -- 85
2019-04-01 21:00:00 14.9 0 Calma 9 Sur 0 -- -- 78
2019-04-01 20:00:00 15.7 4 Sudoeste 18 Sur 0 -- -- 74
2019-04-01 19:00:00 15.5 5 Sudoeste 15 Sudoeste 0 -- -- 76
2019-04-01 18:00:00 15.3 4 Sudoeste 13 Sudoeste 0.4 -- -- 84
2019-04-01 17:00:00 14.5 12 Sudoeste 29 Oeste 0.8 -- -- 85
2019-04-01 16:00:00 17.5 19 Oeste 36 Oeste 0 -- -- 60
2019-04-01 15:00:00 18 9 Sudoeste 25 Sudoeste 0 -- -- 63
2019-04-01 14:00:00 17.8 15 Sudoeste 26 Sudoeste 0 -- -- 65
2019-04-01 13:00:00 17.2 8 Sudoeste 21 Sudoeste 0 -- -- 69
2019-04-01 12:00:00 16.7 7 Este 14 Este 0 -- -- 71
2019-04-01 11:00:00 15.7 7 Sudeste 12 Este 0 -- -- 80
2019-04-01 10:00:00 13.8 6 Este 12 Este 0 -- -- 90
2019-04-01 09:00:00 12.1 3 Este 9 Este 0 -- -- 97
2019-04-01 08:00:00 11.6 3 Este 8 Sudeste 0 -- -- 96
2019-04-01 07:00:00 12.3 4 Sudeste 9 Este 0 -- -- 95
2019-04-01 06:00:00 12.7 6 Nordeste 10 Nordeste 0 -- -- 95
2019-04-01 05:00:00 12.9 3 Este 6 Este 0 -- -- 95
2019-04-01 04:00:00 12.9 3 Sudeste 8 Sudeste 0 -- -- 94
2019-04-01 03:00:00 13.2 3 Sudeste 11 Sur 0 -- -- 93
2019-04-01 02:00:00 13.5 3 Sudeste 5 Sur 0 -- -- 94
2019-04-01 01:00:00 13.4 0 Calma 12 Sur 0.2 -- -- 92
2019-04-01 00:00:00 13.9 6 Sur 15 Sudoeste 0 -- -- 91
2019-03-31 23:00:00 13.9 3 Sudeste 19 Sudoeste 0.6 -- -- 89
2019-03-31 22:00:00 13.5 0 Calma 11 Sudeste 0 -- -- 89
2019-03-31 21:00:00 14 6 Sudeste 22 Nordeste 0.4 -- -- 85
2019-03-31 20:00:00 14.9 10 Norte 34 Norte 2.2 -- -- 77
2019-03-31 19:00:00 19.4 19 Nordeste 34 Nordeste 0 -- -- 45
2019-03-31 18:00:00 21.1 7 Sudeste 17 Sudeste 0 -- -- 40
2019-03-31 17:00:00 21.2 6 Nordeste 16 Este 0 -- -- 40
2019-03-31 16:00:00 20.5 7 Este 20 Sudeste 0 -- -- 44
2019-03-31 15:00:00 19.1 10 Este 23 Este 0 -- -- 51
2019-03-31 14:00:00 17.9 12 Este 22 Este 0 -- -- 61
2019-03-31 13:00:00 15.9 10 Nordeste 18 Nordeste 0 -- -- 73
2019-03-31 12:00:00 14.4 7 Este 13 Este 0 -- -- 80
2019-03-31 11:00:00 13.4 8 Nordeste 14 Este 0 -- -- 87
2019-03-31 10:00:00 12.9 8 Este 16 Este 0 -- -- 89
2019-03-31 09:00:00 12.6 6 Este 17 Este 0 -- -- 89
2019-03-31 08:00:00 12.9 10 Este 22 Sudeste 0 -- -- 85
2019-03-31 07:00:00 12.4 4 Nordeste 6 Nordeste 0 -- -- 79
2019-03-31 06:00:00 12.6 3 Sudeste 9 Este 0 -- -- 75
2019-03-31 05:00:00 12.6 6 Este 10 Este 0 -- -- 74
2019-03-31 03:00:00 13.2 5 Sudeste 8 Este 0 -- -- 73
2019-03-31 01:00:00 14.4 2 Sur 9 Sur 0 -- -- 65
2019-03-31 00:00:00 14.7 4 Sudeste 13 Sur 0 -- -- 59
2019-03-30 23:00:00 14.5 4 Este 10 Sudeste 0 -- -- 60
2019-03-30 22:00:00 15.2 3 Sudeste 12 Sur 0 -- -- 55
2019-03-30 21:00:00 15.9 13 Sur 31 Sur 0 -- -- 52
2019-03-30 20:00:00 16.2 18 Sur 42 Sur 0 -- -- 51
2019-03-30 19:00:00 18 21 Sur 34 Sur 0 -- -- 45
2019-03-30 18:00:00 21.1 17 Sur 31 Sudoeste 0 -- -- 37
2019-03-30 17:00:00 22.7 11 Sur 26 Sur 0 -- -- 32
2019-03-30 16:00:00 23 10 Sur 23 Sur 0 -- -- 32
2019-03-30 15:00:00 22 8 Sudeste 22 Este 0 -- -- 34
2019-03-30 14:00:00 20.9 7 Este 26 Este 0 -- -- 34
2019-03-30 13:00:00 19.8 10 Este 21 Este 0 -- -- 35
2019-03-30 12:00:00 18.4 12 Este 23 Este 0 -- -- 38
2019-03-30 11:00:00 16.4 13 Este 26 Este 0 -- -- 45
2019-03-30 10:00:00 14.6 15 Nordeste 26 Este 0 -- -- 56
2019-03-30 09:00:00 10.8 10 Este 17 Este 0 -- -- 74
2019-03-30 08:00:00 8.8 5 Este 9 Este 0 -- -- 84
2019-03-30 07:00:00 8.4 5 Este 10 Nordeste 0 -- -- 84
2019-03-30 06:00:00 9.7 5 Este 9 Nordeste 0 -- -- 78
2019-03-30 05:00:00 10.4 6 Este 13 Este 0 -- -- 76
2019-03-30 04:00:00 11.1 8 Este 12 Sudeste 0 -- -- 74
2019-03-30 03:00:00 10.9 4 Este 9 Nordeste 0 -- -- 73
2019-03-30 02:00:00 11.6 5 Este 8 Nordeste 0 -- -- 70
2019-03-30 01:00:00 12.3 3 Nordeste 7 Sudoeste 0 -- -- 64
2019-03-30 00:00:00 13.5 3 Sur 11 Este 0 -- -- 58
2019-03-29 23:00:00 13.9 4 Sur 15 Sudeste 0 -- -- 53
2019-03-29 22:00:00 15.4 5 Este 10 Sudeste 0 -- -- 48
2019-03-29 21:00:00 16 9 Sur 29 Sur 0 -- -- 45
2019-03-29 20:00:00 17 16 Sur 36 Sur 0 -- -- 42
2019-03-29 19:00:00 18.3 17 Sur 31 Sur 0 -- -- 38
2019-03-29 18:00:00 20.5 19 Sur 29 Sudoeste 0 -- -- 31
2019-03-29 17:00:00 21.9 16 Sur 28 Sudoeste 0 -- -- 28
2019-03-29 16:00:00 22 13 Sur 28 Sur 0 -- -- 25
2019-03-29 15:00:00 21.4 12 Sudeste 24 Este 0 -- -- 29
2019-03-29 14:00:00 20.4 11 Este 27 Sudeste 0 -- -- 26
2019-03-29 13:00:00 18.7 12 Este 32 Este 0 -- -- 23
2019-03-29 12:00:00 17.4 13 Este 32 Nordeste 0 -- -- 27
2019-03-29 11:00:00 15.5 13 Este 28 Este 0 -- -- 27
2019-03-29 10:00:00 12 13 Nordeste 19 Nordeste 0 -- -- 43
2019-03-29 09:00:00 8.5 9 Este 15 Nordeste 0 -- -- 59
2019-03-29 08:00:00 5.6 5 Este 10 Nordeste 0 -- -- 76
2019-03-29 07:00:00 5.7 5 Este 12 Este 0 -- -- 76
2019-03-29 06:00:00 6 8 Este 13 Este 0 -- -- 76
2019-03-29 05:00:00 6.2 7 Este 13 Nordeste 0 -- -- 76
2019-03-29 04:00:00 7.3 5 Este 8 Este 0 -- -- 70
2019-03-29 03:00:00 8 5 Sudeste 10 Este 0 -- -- 67
2019-03-29 02:00:00 8.8 6 Nordeste 12 Este 0 -- -- 63
2019-03-29 01:00:00 9.1 7 Este 10 Este 0 -- -- 60
2019-03-29 00:00:00 9.8 4 Este 9 Este 0 -- -- 53
2019-03-28 23:00:00 11 3 Este 5 Sudeste 0 -- -- 48
2019-03-28 22:00:00 12.7 4 Este 10 Noroeste 0 -- -- 41
2019-03-28 21:00:00 14 5 Noroeste 23 Sur 0 -- -- 38
2019-03-28 20:00:00 16.1 13 Sur 28 Sur 0 -- -- 30
2019-03-28 19:00:00 19.1 16 Sur 30 Sur 0 -- -- 21
2019-03-28 18:00:00 21.2 8 Norte 21 Noroeste 0 -- -- 16
2019-03-28 17:00:00 21.3 9 Noroeste 23 Nordeste 0 -- -- 19
2019-03-28 16:00:00 20.8 9 Nordeste 30 Este 0 -- -- 20
2019-03-28 15:00:00 20.5 11 Este 27 Este 0 -- -- 23
2019-03-28 14:00:00 19 14 Nordeste 31 Este 0 -- -- 28
2019-03-28 13:00:00 18.3 11 Este 31 Este 0 -- -- 33
2019-03-28 12:00:00 17.5 8 Este 24 Nordeste 0 -- -- 37
2019-03-28 11:00:00 15.4 12 Nordeste 23 Nordeste 0 -- -- 43
2019-03-28 10:00:00 12.9 15 Este 24 Nordeste 0 -- -- 47
2019-03-28 09:00:00 10.8 6 Nordeste 13 Nordeste 0 -- -- 64
2019-03-28 08:00:00 7.4 3 Sudeste 12 Este 0 -- -- 83
2019-03-28 07:00:00 6.6 6 Este 12 Este 0 -- -- 86
2019-03-28 06:00:00 7.4 5 Este 11 Este 0 -- -- 83
2019-03-28 05:00:00 7.7 6 Este 9 Este 0 -- -- 81
2019-03-28 04:00:00 8.3 3 Este 8 Este 0 -- -- 75
2019-03-28 03:00:00 9 3 Este 10 Este 0 -- -- 71
2019-03-28 02:00:00 9.6 4 Este 10 Nordeste 0 -- -- 68
2019-03-28 01:00:00 10.1 5 Este 10 Este 0 -- -- 65
2019-03-28 00:00:00 11.2 3 Nordeste 6 Este 0 -- -- 62
2019-03-27 23:00:00 12.6 3 Sur 14 Sur 0 -- -- 57
2019-03-27 22:00:00 13 4 Norte 27 Sur 0 -- -- 53
2019-03-27 21:00:00 14.5 14 Sur 27 Sur 0 -- -- 45
2019-03-27 20:00:00 16.7 17 Sur 28 Sur 0 -- -- 35
2019-03-27 19:00:00 20.8 11 Este 18 Este 0 -- -- 15
2019-03-27 18:00:00 21.6 12 Este 24 Nordeste 0 -- -- 14
2019-03-27 17:00:00 21.7 12 Este 29 Nordeste 0 -- -- 14
2019-03-27 16:00:00 21.4 15 Este 31 Este 0 -- -- 14
2019-03-27 15:00:00 20.9 20 Este 39 Este 0 -- -- 16
2019-03-27 14:00:00 20.1 21 Nordeste 41 Este 0 -- -- 19
2019-03-27 13:00:00 19.4 19 Nordeste 37 Nordeste 0 -- -- 22
2019-03-27 12:00:00 18.4 23 Este 37 Este 0 -- -- 21
2019-03-27 11:00:00 16.8 20 Este 34 Nordeste 0 -- -- 26
2019-03-27 10:00:00 14.7 21 Este 35 Este 0 -- -- 33
2019-03-27 09:00:00 12.6 13 Este 22 Este 0 -- -- 40
2019-03-27 08:00:00 10.1 6 Este 14 Nordeste 0 -- -- 61
2019-03-27 07:00:00 9.6 4 Este 8 Este 0 -- -- 85
2019-03-27 06:00:00 10.4 5 Sudeste 14 Sudeste 0 -- -- 82
2019-03-27 05:00:00 9.6 6 Este 12 Este 0 -- -- 85
2019-03-27 04:00:00 10.5 3 Este 11 Nordeste 0 -- -- 78
2019-03-27 03:00:00 11.2 3 Este 7 Este 0 -- -- 75
2019-03-27 02:00:00 11.6 0 Calma 10 Sur 0 -- -- 77
2019-03-27 01:00:00 12.6 4 Sudeste 7 Este 0 -- -- 68
2019-03-27 00:00:00 13.1 5 Nordeste 9 Nordeste 0 -- -- 62
2019-03-26 23:00:00 14.1 4 Sudeste 12 Este 0 -- -- 59
2019-03-26 22:00:00 15.4 3 Sudoeste 10 Sur 0 -- -- 53
2019-03-26 21:00:00 17.1 4 Sudoeste 10 Oeste 0 -- -- 46
2019-03-26 20:00:00 18.6 5 Noroeste 28 Sur 0 -- -- 40
2019-03-26 19:00:00 20.7 18 Sur 37 Sudoeste 0 -- -- 34
2019-03-26 18:00:00 23.3 18 Sur 33 Sur 0 -- -- 26
2019-03-26 17:00:00 27.1 4 Nordeste 20 Este 0 -- -- 14
2019-03-26 16:00:00 26.4 12 Este 30 Este 0 -- -- 15
2019-03-26 15:00:00 25.9 13 Este 23 Este 0 -- -- 16
2019-03-26 14:00:00 24.8 13 Este 26 Nordeste 0 -- -- 18
2019-03-26 13:00:00 23.2 13 Este 24 Este 0 -- -- 22
2019-03-26 12:00:00 21.1 14 Este 27 Este 0 -- -- 28
2019-03-26 11:00:00 18.5 15 Este 26 Este 0 -- -- 33
2019-03-26 10:00:00 14.9 4 Nordeste 12 Nordeste 0 -- -- 52
2019-03-26 09:00:00 12.2 6 Este 11 Este 0 -- -- 61
2019-03-26 08:00:00 9.4 5 Este 9 Este 0 -- -- 75
2019-03-26 07:00:00 9.4 6 Este 10 Este 0 -- -- 75
2019-03-26 06:00:00 9.7 6 Este 9 Nordeste 0 -- -- 75
2019-03-26 05:00:00 10.5 4 Sudeste 10 Este 0 -- -- 72
2019-03-26 04:00:00 10.8 5 Este 9 Este 0 -- -- 70
2019-03-26 03:00:00 11.2 5 Este 12 Este 0 -- -- 69
2019-03-26 02:00:00 11.6 7 Este 10 Este 0 -- -- 68
2019-03-26 01:00:00 12.6 3 Este 15 Este 0 -- -- 64
2019-03-26 00:00:00 13.1 7 Este 12 Este 0 -- -- 60
2019-03-25 23:00:00 15 2 Este 5 Este 0 -- -- 52
2019-03-25 22:00:00 16.3 4 Noroeste 15 Sur 0 -- -- 47
2019-03-25 21:00:00 17.9 12 Sur 21 Sudoeste 0 -- -- 43
2019-03-25 20:00:00 20 15 Sur 26 Sur 0 -- -- 39
2019-03-25 19:00:00 23.5 8 Este 28 Nordeste 0 -- -- 24
2019-03-25 18:00:00 24.2 17 Nordeste 33 Este 0 -- -- 23
2019-03-25 17:00:00 24.5 14 Este 30 Este 0 -- -- 23
2019-03-25 16:00:00 24.4 15 Nordeste 36 Este 0 -- -- 24
2019-03-25 15:00:00 23.6 15 Nordeste 30 Este 0 -- -- 25
2019-03-25 14:00:00 22.9 15 Nordeste 40 Nordeste 0 -- -- 25
2019-03-25 13:00:00 21.6 19 Nordeste 38 Nordeste 0 -- -- 29
2019-03-25 12:00:00 20.1 22 Este 36 Este 0 -- -- 32
2019-03-25 11:00:00 18.3 21 Este 36 Este 0 -- -- 35
2019-03-25 10:00:00 15.6 15 Este 25 Este 0 -- -- 49
2019-03-25 09:00:00 11.7 10 Nordeste 15 Nordeste 0 -- -- 66
2019-03-25 08:00:00 8.7 6 Este 13 Este 0 -- -- 82
2019-03-25 07:00:00 8.5 7 Este 12 Este 0 -- -- 83
2019-03-25 06:00:00 8.8 5 Este 9 Este 0 -- -- 83
2019-03-25 05:00:00 9.2 4 Nordeste 9 Nordeste 0 -- -- 81
2019-03-25 04:00:00 9.4 5 Sudeste 9 Este 0 -- -- 82
2019-03-25 03:00:00 9.9 2 Este 8 Nordeste 0 -- -- 78
2019-03-25 02:00:00 10.5 5 Este 9 Este 0 -- -- 78
2019-03-25 01:00:00 10.9 0 Calma 8 Sudeste 0 -- -- 76
2019-03-25 00:00:00 11.6 5 Sudeste 8 Sudeste 0 -- -- 73